Weather observations for the past three days for
Hamilton Municipal Airport
Imperial (Metric)
Date Time (cdt) Wind (mph) Vis. (mi.) Weather Sky Cond. Temperature (ºF) Relative Humidity Wind Chill (°F) Heat Index (°F) Pressure Precipitation (in)
Air Dwpt 6 hour altimeter (in) sea level (mb) 1 hr 3 hr 6 hr
Max. Min.
03 14:15 S 12 G 18 10.00 Fair CLR 77 42.8 30% 78 30.12 0.0
03 13:35 SW 12 G 17 10.00 Fair CLR 77 46.4 34% 78 30.14 0.0
03 13:15 S 10 G 18 10.00 Fair CLR 77 44.6 32% 78 30.15 0.0
03 12:55 S 10 G 22 10.00 Fair CLR 77 42.8 76.5 48.9 30% 78 30.17 0.0
03 12:35 SW 12 10.00 Fair CLR 75.2 44.6 34% 77 30.17 0.0
03 12:15 W 10 G 17 10.00 Fair CLR 75.2 46.4 36% 77 30.18 0.0
03 11:55 SW 12 G 18 10.00 Fair CLR 75.2 46.4 36% 77 30.19 0.0
03 11:35 SW 13 9.00 Fair CLR 73.4 46.4 38% 30.2 0.0
03 11:15 W 14 1.50 Light Rain Haze CLR 73.4 48.2 41% 30.2 0.0
03 10:55 SW 15 G 21 8.00 Fair CLR 71.6 48.2 44% 30.21 0.0
03 10:35 SW 15 G 20 3.00 Light Rain Haze CLR 71.6 48.2 44% 30.21 0.0
03 10:15 SW 13 1.75 Light Rain Haze CLR 69.8 50 50% 30.21 0.0
03 09:55 SW 16 7.00 Fair with Haze CLR 68 50 53% 30.21 0.0
03 09:35 SW 15 8.00 Fair CLR 66.2 50 56% 30.2 0.0
03 09:15 SW 16 8.00 Fair CLR 64.4 51.8 64% 30.2 0.0
03 08:55 SW 12 7.00 Light Rain Haze CLR 62.6 51.8 68% 30.19 0.0
03 08:35 SW 10 4.00 Light Drizzle Haze CLR 60.8 51.8 72% 30.19 0.0
03 08:15 SW 9 8.00 Fair CLR 59 51.8 77% 30.19 0.0
03 07:35 SW 7 8.00 Fair CLR 51.8 50 94% 30.18 0.0
03 07:15 SW 9 8.00 Fair CLR 50 48.2 94% 47 30.18 0.0
03 06:55 SW 10 10.00 Fair CLR 50 48.2 54 48 94% 46 30.17 0.0
03 06:35 S 7 9.00 Fair CLR 48.2 46.4 94% 46 30.16 0.0
03 06:15 SW 8 9.00 Fair CLR 50 46.4 88% 47 30.16 0.0
03 05:55 SW 7 10.00 Fair CLR 50 48.2 94% 48 30.15 0.0
03 05:35 SW 9 9.00 Fair CLR 50 48.2 94% 47 30.15 0.0
03 05:15 SW 8 6.00 Fog/Mist CLR 50 48.2 94% 47 30.15 0.0
03 04:55 SW 7 9.00 Fair CLR 50 48.2 94% 48 30.16 0.0
03 04:35 SW 9 8.00 Fair CLR 50 48.2 94% 47 30.15 0.0
03 04:15 SW 8 9.00 Fair CLR 50 48.2 94% 47 30.15 0.0
03 03:55 SW 9 8.00 Fair CLR 51.8 48.2 88% 30.15 0.0
03 03:35 SW 8 8.00 Fair CLR 51.8 48.2 88% 30.14 0.0
03 03:15 SW 8 8.00 Fair CLR 51.8 48.2 88% 30.15 0.0
03 02:55 S 8 9.00 Fair CLR 51.8 48.2 88% 30.15 0.0
03 02:35 S 9 10.00 Fair CLR 51.8 50 94% 30.15 0.0
03 02:15 S 8 4.00 Light Drizzle Fog/Mist CLR 51.8 50 94% 30.15 0.0
03 01:55 SW 9 3.00 Light Drizzle Fog/Mist CLR 53.6 50 88% 30.16 0.0
03 01:35 SW 8 4.00 Light Drizzle Fog/Mist CLR 53.6 50 88% 30.16 0.0
03 01:15 SW 9 6.00 Light Drizzle Fog/Mist CLR 51.8 50 94% 30.17 0.0
03 00:55 S 7 6.00 Light Drizzle Fog/Mist CLR 51.8 50 72.5 51.6 94% 30.17 0.0
03 00:35 S 7 8.00 Light Drizzle CLR 51.8 50 94% 30.17 0.0
03 00:15 SW 9 6.00 Light Drizzle Fog/Mist CLR 53.6 50 88% 30.17 0.0
02 23:55 S 7 8.00 Fair CLR 55.4 50 82% 30.17 0.0
02 23:15 S 7 10.00 Fair CLR 57.2 50 77% 30.17 0.0
02 22:55 S 7 10.00 Fair CLR 59 48.2 68% 30.17 0.0
02 22:35 S 6 10.00 Fair CLR 59 46.4 63% 30.16 0.0
02 22:15 S 5 10.00 Fair CLR 60.8 46.4 59% 30.16 0.0
02 21:55 SE 6 10.00 Fair CLR 60.8 46.4 59% 30.15 0.0
02 21:35 SE 5 9.00 Fair CLR 60.8 48.2 63% 30.15 0.0
02 21:15 SW 5 10.00 Fair CLR 62.6 46.4 56% 30.14 0.0
02 20:55 SW 5 10.00 Fair CLR 64.4 48.2 56% 30.13 0.0
02 20:35 SW 5 10.00 Fair CLR 66.2 46.4 49% 30.13 0.0
02 20:15 S 2 10.00 Fair CLR 68 44.6 43% 30.12 0.0
02 19:55 S 2 10.00 Fair CLR 69.8 46.4 43% 30.12 0.0
02 19:35 Calm 6.00 A Few Clouds with Haze FEW080 69.8 44.6 40% 30.12 0.0
02 19:15 NW 2 8.00 Mostly Cloudy BKN080 71.6 42.8 36% 30.12 0.0
02 18:35 NE 3 10.00 Mostly Cloudy BKN085 73.4 42.8 33% 30.12 0.0
02 18:15 Vrbl 2 10.00 Overcast OVC085 73.4 41 31% 30.12 0.0
02 17:55 Vrbl 2 10.00 Partly Cloudy SCT085 71.6 41 33% 30.12 0.0
02 17:35 Vrbl 3 10.00 Fair CLR 71.6 42.8 36% 30.12 0.0
02 17:15 N 2 10.00 Fair CLR 71.6 42.8 36% 30.12 0.0
02 16:55 N 3 10.00 Fair CLR 69.8 44.6 40% 30.13 0.0
02 16:35 Vrbl 2 10.00 Fair CLR 73.4 41 31% 30.13 0.0
02 16:15 NE 9 10.00 A Few Clouds FEW070 73.4 42.8 33% 30.14 0.0
02 15:35 Vrbl 7 10.00 Fair CLR 73.4 44.6 36% 30.15 0.0
02 15:15 Vrbl 5 10.00 Fair CLR 73.4 42.8 33% 30.16 0.0
02 14:55 Vrbl 5 10.00 Fair CLR 71.6 41 33% 30.16 0.0
02 14:35 NE 6 10.00 Fair CLR 71.6 41 33% 30.17 0.0
02 14:15 NE 7 10.00 Fair CLR 71.6 42.8 36% 30.17 0.0
02 13:35 N 9 G 18 10.00 A Few Clouds FEW060 69.8 44.6 40% 30.18 0.0
02 13:15 N 10 10.00 Fair CLR 71.6 46.4 41% 30.19 0.0
02 12:55 Vrbl 5 10.00 Fair CLR 69.8 46.4 69.3 46.8 43% 30.2 0.0
02 12:35 N 9 10.00 Fair CLR 68 46.4 46% 30.21 0.0
02 12:15 Vrbl 7 10.00 Fair CLR 68 46.4 46% 30.22 0.0
02 11:55 Vrbl 3 10.00 Fair CLR 66.2 46.4 49% 30.22 0.0
02 11:35 Vrbl 6 10.00 Fair CLR 66.2 48.2 52% 30.22 0.0
02 11:15 NW 5 10.00 Fair CLR 66.2 50 56% 30.22 0.0
02 10:35 NW 9 10.00 Fair CLR 64.4 50 60% 30.21 0.0
02 10:15 NW 12 10.00 Fair CLR 62.6 50 64% 30.22 0.0
02 09:55 NW 9 10.00 Fair CLR 62.6 50 64% 30.21 0.0
02 09:35 NW 9 10.00 Fair CLR 60.8 51.8 72% 30.21 0.0
02 09:15 NW 9 10.00 Fair CLR 59 51.8 77% 30.2 0.0
02 08:55 NW 9 10.00 Fair CLR 55.4 51.8 88% 30.2 0.0
02 08:35 NW 9 10.00 Fair CLR 53.6 51.8 94% 30.2 0.0
02 07:55 NW 6 9.00 Fair CLR 50 50 100% 48 30.19 0.0
02 07:35 NW 5 9.00 Fair CLR 48.2 48.2 100% 47 30.18 0.0
02 07:15 NW 8 8.00 Fair CLR 48.2 48.2 100% 45 30.16 0.0
02 06:55 NW 8 8.00 Fair CLR 46.4 46.4 50.2 45.3 100% 43 30.15 0.0
02 06:35 NW 8 8.00 Fair CLR 46.4 46.4 100% 43 30.15 0.0
02 06:15 NW 7 8.00 Fair CLR 46.4 46.4 100% 43 30.14 0.0
02 05:55 NW 8 8.00 Fair CLR 46.4 46.4 100% 43 30.13 0.0
02 05:35 NW 9 9.00 Fair CLR 46.4 46.4 100% 42 30.12 0.0
02 05:15 NW 7 9.00 Fair CLR 46.4 46.4 100% 43 30.11 0.0
02 04:55 NW 6 10.00 Fair CLR 46.4 46.4 100% 44 30.11 0.0
02 04:35 NW 7 10.00 Fair CLR 46.4 46.4 100% 43 30.11 0.0
02 04:15 NW 7 10.00 Fair CLR 46.4 46.4 100% 43 30.11 0.0
02 03:55 NW 6 10.00 Fair CLR 46.4 46.4 100% 44 30.11 0.0
02 03:35 W 6 10.00 Fair CLR 48.2 48.2 100% 46 30.11 0.0
02 03:15 NW 6 10.00 Fair CLR 48.2 48.2 100% 46 30.11 0.0
02 02:55 NW 7 10.00 Fair CLR 48.2 48.2 100% 46 30.11 0.0
02 02:15 NW 7 10.00 Fair CLR 48.2 48.2 100% 46 30.12 0.0
02 01:55 N 6 10.00 Fair CLR 48.2 48.2 100% 46 30.11 0.0
02 01:35 N 2 10.00 Partly Cloudy SCT046 48.2 48.2 100% 30.11 0.0
02 01:15 NW 8 10.00 Mostly Cloudy BKN046 50 50 100% 47 30.12 0.0
02 00:55 NW 7 10.00 Fair CLR 50 50 58.3 49.1 100% 48 30.12 0.0
02 00:35 NW 3 10.00 Fair CLR 50 50 100% 30.11 0.0
02 00:15 NW 5 10.00 A Few Clouds FEW044 50 50 100% 49 30.12 0.0
01 23:55 N 5 10.00 Partly Cloudy FEW044 SCT095 50 50 100% 49 30.11 0.0
01 23:35 N 6 10.00 Mostly Cloudy BKN095 51.8 51.8 100% 30.11 0.0
01 23:15 NE 3 10.00 Overcast OVC095 53.6 51.8 94% 30.1 0.0
01 22:55 N 5 10.00 Overcast FEW045 OVC095 51.8 51.8 100% 30.11 0.0
01 22:35 N 3 10.00 Overcast OVC095 51.8 50 94% 30.1 0.0
01 22:15 N 5 10.00 Mostly Cloudy BKN095 53.6 50 88% 30.09 0.0
01 21:55 NE 2 10.00 Partly Cloudy SCT095 53.6 50 88% 30.08 0.0
01 21:35 NE 6 10.00 Mostly Cloudy SCT065 BKN095 53.6 50 88% 30.08 0.0
01 21:15 NE 6 10.00 Overcast OVC065 53.6 50 88% 30.08 0.0
01 20:55 N 7 10.00 Mostly Cloudy BKN065 53.6 51.8 94% 30.07 0.0
01 20:35 NE 8 10.00 Fair CLR 55.4 50 82% 30.06 0.0
01 20:15 N 5 10.00 Fair CLR 55.4 51.8 88% 30.05 0.0
01 19:55 NE 3 10.00 A Few Clouds FEW085 57.2 51.8 82% 30.03 0.0
01 19:35 NE 7 10.00 Overcast OVC095 57.2 51.8 82% 30.02 0.0
01 19:15 NE 8 10.00 Overcast OVC095 57.2 51.8 82% 30.02 0.0
01 18:55 NE 8 10.00 Overcast OVC095 57.2 50 58.5 53.4 77% 30.01 0.0
01 18:35 NE 9 10.00 Mostly Cloudy BKN095 59 50 72% 29.99 0.0
01 18:15 NE 12 10.00 A Few Clouds FEW095 57.2 50 77% 29.98 0.0
01 17:55 NE 15 10.00 Fair CLR 57.2 50 77% 29.96 0.0
01 17:35 N 12 10.00 A Few Clouds FEW070 FEW090 57.2 51.8 82% 29.97 0.0
01 17:15 N 14 G 20 10.00 Mostly Cloudy FEW042 BKN070 BKN080 57.2 51.8 82% 29.97 0.0
01 16:55 N 16 10.00 Mostly Cloudy BKN042 BKN060 55.4 51.8 88% 29.98 0.0
01 16:35 N 13 7.00 Light Rain OVC040 55.4 53.6 94% 29.98 0.0
01 16:15 N 13 9.00 Light Rain FEW018 OVC038 55.4 53.6 94% 29.99 0.0
01 15:55 N 17 G 22 10.00 Overcast FEW018 BKN029 OVC034 57.2 53.6 88% 29.98 0.0
01 15:35 NE 20 G 26 10.00 Overcast OVC029 55.4 51.8 88% 29.99 0.0
01 15:15 NE 20 G 25 10.00 Overcast SCT018 SCT026 OVC031 55.4 51.8 88% 29.99 0.0
01 14:55 N 22 G 28 10.00 Overcast and Breezy OVC018 55.4 53.6 94% 29.98 0.0
01 14:35 N 17 G 21 10.00 Overcast OVC023 55.4 53.6 94% 29.98 0.0
01 14:15 NE 10 10.00 Overcast OVC026 55.4 53.6 94% 29.99 0.0
01 13:55 NE 10 10.00 Light Rain SCT020 OVC026 53.6 53.6 100% 30 0.0
01 13:35 NE 10 G 20 10.00 Overcast OVC018 53.6 51.8 94% 30.01 0.0
01 13:15 N 10 G 20 8.00 Light Rain OVC018 53.6 53.6 100% 30 0.0
01 12:55 NE 12 10.00 Overcast FEW010 BKN015 OVC022 53.6 53.6 55.6 53.4 100% 30.01 0.0
01 12:35 NE 9 10.00 Overcast BKN012 OVC019 53.6 53.6 100% 30 0.0
01 12:15 NE 14 G 22 10.00 Overcast BKN010 OVC015 53.6 53.6 100% 30 0.0
01 11:55 NE 13 G 21 10.00 Overcast FEW008 OVC013 55.4 55.4 100% 29.98 0.0
01 11:35 NE 13 9.00 Light Drizzle BKN011 OVC020 55.4 55.4 100% 29.99 0.0
01 11:15 NE 15 G 20 10.00 Overcast FEW010 SCT015 OVC020 55.4 55.4 100% 29.99 0.0
01 10:55 NE 13 G 23 10.00 Overcast BKN013 BKN019 OVC024 53.6 53.6 100% 30 0.0
01 10:35 NE 14 10.00 Overcast BKN005 BKN011 OVC024 53.6 53.6 100% 30 0.0
01 10:15 NE 15 G 21 9.00 Overcast OVC005 53.6 53.6 100% 29.99 0.0
01 09:55 NE 12 G 20 9.00 Overcast OVC005 53.6 53.6 100% 29.98 0.0 0.01
01 09:35 NE 13 G 18 9.00 Overcast OVC005 53.6 53.6 100% 29.97 0.0
01 09:15 NE 9 9.00 Overcast OVC005 53.6 53.6 100% 29.99 0.0
01 08:55 E 9 9.00 Overcast BKN005 OVC110 53.6 53.6 100% 29.98 0.0 0.09
01 08:35 E 13 G 21 7.00 Light Rain Fog/Mist BKN005 BKN014 OVC110 53.6 53.6 100% 29.97 0.0
01 08:15 NE 13 G 22 3.00 Rain Fog/Mist OVC007 53.6 53.6 100% 29.96 0.0
01 07:55 NE 7 4.00 Rain Fog/Mist OVC007 53.6 53.6 100% 30.02 0.0 0.04
01 07:35 NE 7 6.00 Light Drizzle Fog/Mist BKN007 BKN011 OVC018 55.4 55.4 100% 29.99 0.0
01 07:15 NE 10 G 20 4.00 Light Rain Fog/Mist OVC009 53.6 53.6 100% 29.97 0.0
01 06:55 NE 10 5.00 Light Rain Fog/Mist OVC005 53.6 53.6 57 54.3 100% 29.97 0.0 0.05
01 06:35 NE 9 G 17 2.50 Light Rain Fog/Mist OVC003 55.4 55.4 100% 29.98 0.0
01 06:15 NE 8 G 17 3.00 Light Rain Fog/Mist OVC003 53.6 53.6 100% 29.98 0.0
01 05:55 NE 13 G 16 2.00 Light Drizzle Fog/Mist OVC003 55.4 55.4 100% 29.96 0.0
01 05:35 NE 12 G 17 2.00 Fog/Mist OVC003 55.4 55.4 100% 29.95 0.0
01 05:15 NE 10 2.00 Fog/Mist OVC003 55.4 55.4 100% 29.96 0.0
01 04:55 NE 13 G 17 4.00 Fog/Mist OVC003 55.4 55.4 100% 29.96 0.0 0.01
01 04:35 NE 12 G 17 5.00 Light Drizzle Fog/Mist OVC003 55.4 55.4 100% 29.96 0.0
01 04:15 NE 12 1.75 Light Rain Fog/Mist OVC003 55.4 55.4 100% 29.96 0.0
01 03:55 E 10 1.75 Light Drizzle Fog/Mist OVC003 55.4 55.4 100% 29.97 0.0
01 03:35 NE 13 2.00 Fog/Mist OVC003 55.4 55.4 100% 29.97 0.0
01 03:15 NE 8 7.00 Fog/Mist OVC005 57.2 57.2 100% 29.97 0.0
01 02:55 NE 9 5.00 Fog/Mist OVC003 57.2 57.2 100% 29.98 0.0
01 02:35 NE 7 4.00 Fog/Mist OVC003 57.2 57.2 100% 29.98 0.0
01 02:15 NE 12 4.00 Fog/Mist OVC003 57.2 57.2 100% 29.98 0.0
01 01:55 NE 9 G 17 4.00 Fog/Mist OVC003 57.2 57.2 100% 29.98 0.0
01 01:35 NE 9 G 20 5.00 Thunderstorm in Vicinity Fog/Mist OVC003 57.2 57.2 100% 29.97 0.0
01 01:15 NE 12 3.00 Thunderstorm in Vicinity Fog/Mist OVC003 57.2 57.2 100% 29.96 0.0
01 00:55 NE 12 2.00 Fog/Mist OVC003 57.2 57.2 60.4 56.7 100% 29.97 0.0
01 00:35 NE 14 G 18 2.50 Fog/Mist OVC003 57.2 57.2 100% 29.98 0.0
01 00:15 NE 9 3.00 Fog/Mist OVC003 57.2 57.2 100% 30 0.0
30 23:55 NE 10 2.00 Fog/Mist OVC003 57.2 57.2 100% 29.98 0.0
30 23:35 NE 8 2.00 Fog/Mist OVC003 57.2 57.2 100% 30 0.0
30 23:15 NE 8 2.50 Fog/Mist OVC003 57.2 57.2 100% 29.99 0.0
30 22:55 NE 7 8.00 Overcast OVC003 57.2 57.2 100% 29.99 0.0
30 22:35 NE 8 9.00 Overcast OVC003 57.2 57.2 100% 29.99 0.0
30 22:15 NE 8 8.00 Overcast OVC003 59 57.2 94% 29.99 0.0
30 21:55 NE 7 9.00 Overcast OVC003 59 59 100% 29.97 0.0
30 21:35 NE 7 10.00 Overcast OVC003 59 59 100% 29.98 0.0
30 21:15 NE 7 7.00 Overcast OVC003 57.2 57.2 100% 29.96 0.0
30 20:55 NE 13 G 17 10.00 Overcast OVC003 57.2 57.2 100% 29.94 0.0
30 20:35 NE 13 6.00 Fog/Mist OVC003 59 59 100% 29.92 0.0
30 20:15 NE 9 8.00 Overcast OVC003 59 59 100% 29.92 0.0
30 19:55 NE 10 6.00 Fog/Mist OVC003 60.8 59 94% 29.91 0.0 0.01
30 19:35 N 12 4.00 Fog/Mist OVC003 60.8 60.8 100% 29.92 0.0
30 19:15 N 12 3.00 Fog/Mist OVC003 60.8 60.8 100% 29.91 0.0
30 18:35 NE 8 1.75 Light Drizzle Fog/Mist OVC003 60.8 60.8 100% 29.92 0.0
30 18:15 N 7 2.00 Light Drizzle Fog/Mist OVC003 60.8 60.8 100% 29.92 0.0
30 17:55 N 7 2.00 Fog/Mist OVC003 60.8 60.8 100% 29.93 0.0
30 17:35 N 3 4.00 Fog/Mist OVC003 60.8 60.8 100% 29.92 0.0
30 17:15 NE 9 5.00 Fog/Mist OVC003 60.8 60.8 100% 29.9 0.0
30 16:55 NE 8 7.00 Overcast OVC003 60.8 60.8 100% 29.88 0.0
30 16:35 NE 9 8.00 Overcast OVC003 60.8 60.8 100% 29.88 0.0
30 16:15 N 10 10.00 Overcast OVC003 60.8 60.8 100% 29.9 0.0
30 15:55 NE 8 6.00 Fog/Mist OVC003 60.8 60.8 100% 29.9 0.0
30 15:35 SE 5 4.00 Fog/Mist OVC003 59 59 100% 29.92 0.0
30 15:15 Vrbl 5 1.00 Fog/Mist OVC003 59 59 100% 29.93 0.0
30 14:55 E 7 2.50 Fog/Mist OVC003 59 59 100% 29.91 0.0
Date Time (cdt) Wind (mph) Vis. (mi.) Weather Sky Cond. Air Dwpt Max. Min. Relative Humidity Wind Chill (°F) Heat Index (°F) altimeter (in) sea level (mb) 1 hr 3 hr 6 hr
6 hour
Temperature (ºF) Pressure Precipitation (in)